Time;durP1;ratioP1;P1;durP2;ratioP2;P2;SDS_P1;SDS_P2;PMS_P1;PMS_P2;Temp;Humidity;BMP_temperature;BMP_pressure;BME280_temperature;BME280_humidity;BME280_pressure;Samples;Min_cycle;Max_cycle;Signal;HPM_P1;HPM_P2
2021/04/15 00:02:44;;;;;;;1.60;1.10;;;17.10;28.00;;;;;;8393328;28;20032;-56
2021/04/15 00:06:45;;;;;;;1.20;1.10;;;17.10;28.00;;;;;;8392194;28;20041;-55
2021/04/15 00:10:51;;;;;;;1.40;1.10;;;17.10;28.00;;;;;;8387001;28;20458;-56
2021/04/15 00:14:51;;;;;;;2.15;1.38;;;17.10;28.00;;;;;;8362613;28;20044;-56
2021/04/15 00:18:52;;;;;;;1.40;0.93;;;17.10;28.00;;;;;;8390543;28;20044;-57
2021/04/15 00:22:52;;;;;;;1.50;1.10;;;17.10;28.00;;;;;;8392894;28;20041;-57
2021/04/15 00:26:53;;;;;;;1.53;1.17;;;17.00;28.00;;;;;;8390959;28;20045;-56
2021/04/15 00:30:53;;;;;;;1.20;0.93;;;17.00;28.00;;;;;;8392604;28;20041;-58
2021/04/15 00:34:54;;;;;;;1.37;0.93;;;17.00;28.00;;;;;;8395511;28;20044;-56
2021/04/15 00:38:55;;;;;;;1.47;1.13;;;17.00;28.00;;;;;;8366667;28;20103;-56
2021/04/15 00:42:56;;;;;;;1.20;0.98;;;17.00;28.00;;;;;;8373669;28;20037;-56
2021/04/15 00:47:12;;;;;;;1.93;1.10;;;17.00;28.00;;;;;;8392147;28;20053;-57
2021/04/15 00:51:30;;;;;;;1.58;1.00;;;17.00;28.00;;;;;;8394765;28;20037;-56
2021/04/15 00:55:33;;;;;;;1.25;0.93;;;17.00;28.00;;;;;;8390759;28;20048;-55
2021/04/15 00:59:34;;;;;;;1.45;1.17;;;17.00;28.00;;;;;;8391487;28;20048;-56
2021/04/15 01:03:36;;;;;;;1.83;1.17;;;16.90;28.00;;;;;;8377686;28;20122;-56
2021/04/15 01:07:36;;;;;;;1.10;1.00;;;16.90;28.00;;;;;;8362175;28;20491;-56
2021/04/15 01:12:08;;;;;;;2.67;0.97;;;17.00;28.00;;;;;;8372221;28;20045;-56
2021/04/15 01:16:27;;;;;;;1.75;1.10;;;16.90;28.00;;;;;;8390108;28;20381;-56
2021/04/15 01:20:49;;;;;;;1.25;1.00;;;16.90;28.00;;;;;;8391092;28;20041;-56
2021/04/15 01:25:36;;;;;;;1.25;1.05;;;16.90;28.00;;;;;;8389724;28;20033;-57
2021/04/15 01:29:36;;;;;;;1.20;1.00;;;16.90;28.00;;;;;;8346507;28;20052;-56
2021/04/15 01:33:48;;;;;;;1.17;1.07;;;16.90;28.00;;;;;;8360164;28;20036;-56
2021/04/15 01:37:59;;;;;;;0.70;0.70;;;16.90;28.00;;;;;;8395253;28;20036;-56
2021/04/15 01:42:05;;;;;;;0.90;0.90;;;16.90;28.00;;;;;;8388725;28;20064;-56
2021/04/15 01:46:06;;;;;;;0.98;0.88;;;16.80;28.00;;;;;;8378918;28;20038;-56
2021/04/15 01:50:26;;;;;;;2.08;1.05;;;16.80;28.00;;;;;;8377545;28;20050;-55
2021/04/15 01:54:29;;;;;;;0.80;0.80;;;16.80;28.00;;;;;;8385437;28;20041;-57
2021/04/15 01:58:41;;;;;;;1.20;0.80;;;16.80;28.00;;;;;;8362006;28;20127;-56
2021/04/15 02:02:45;;;;;;;2.00;1.20;;;16.80;28.00;;;;;;8386545;28;20032;-56
2021/04/15 02:06:51;;;;;;;1.15;1.00;;;16.80;28.00;;;;;;8372011;28;20090;-56
2021/04/15 02:10:59;;;;;;;1.13;1.00;;;16.80;28.00;;;;;;8374771;28;20045;-56
2021/04/15 02:15:09;;;;;;;1.38;1.10;;;16.80;28.00;;;;;;8395015;28;20032;-56
2021/04/15 02:19:20;;;;;;;1.23;1.10;;;16.80;28.00;;;;;;8401454;28;20052;-56
2021/04/15 02:23:47;;;;;;;1.13;0.93;;;16.70;28.00;;;;;;8396837;28;20127;-56
2021/04/15 02:27:54;;;;;;;2.25;1.00;;;16.80;28.00;;;;;;8395155;28;20041;-56
2021/04/15 02:32:01;;;;;;;1.52;0.80;;;16.70;28.00;;;;;;8394658;28;20040;-56
2021/04/15 02:36:05;;;;;;;1.05;0.95;;;16.80;28.00;;;;;;8394681;28;23049;-56
2021/04/15 02:40:23;;;;;;;1.55;1.10;;;16.70;28.00;;;;;;8400798;28;20055;-56
2021/04/15 02:44:29;;;;;;;2.08;1.10;;;16.70;28.50;;;;;;8395846;28;20040;-56
2021/04/15 02:48:35;;;;;;;1.23;1.00;;;16.70;28.00;;;;;;8373493;28;20037;-56
2021/04/15 02:52:40;;;;;;;1.48;1.00;;;16.70;28.00;;;;;;8374767;28;20362;-56
2021/04/15 02:56:55;;;;;;;1.20;1.10;;;16.70;28.10;;;;;;8395713;28;20040;-56
2021/04/15 03:00:56;;;;;;;3.85;1.17;;;16.70;28.10;;;;;;8398568;28;20519;-56
2021/04/15 03:05:19;;;;;;;1.60;1.00;;;16.70;28.10;;;;;;8395352;28;20029;-56
2021/04/15 03:09:21;;;;;;;1.70;0.82;;;16.70;28.10;;;;;;8392636;28;20386;-57
2021/04/15 03:13:28;;;;;;;1.55;1.30;;;16.70;28.50;;;;;;8383642;28;20040;-56
2021/04/15 03:17:31;;;;;;;1.73;0.98;;;16.60;28.10;;;;;;8363178;28;20620;-56
2021/04/15 03:21:55;;;;;;;1.63;1.05;;;16.60;28.20;;;;;;8397097;28;20103;-56
2021/04/15 03:25:59;;;;;;;1.77;1.20;;;16.60;28.20;;;;;;8394652;28;20043;-56
2021/04/15 03:30:05;;;;;;;1.50;1.10;;;16.60;28.20;;;;;;8392706;28;20063;-56
2021/04/15 03:34:09;;;;;;;2.47;1.17;;;16.60;28.20;;;;;;8394612;28;20052;-58
2021/04/15 03:38:38;;;;;;;1.00;0.95;;;16.60;28.20;;;;;;8393808;28;20067;-58
2021/04/15 03:42:45;;;;;;;1.30;1.00;;;16.60;28.20;;;;;;8364028;28;20048;-56
2021/04/15 03:47:13;;;;;;;2.38;1.15;;;16.50;28.20;;;;;;8390493;28;20119;-57
2021/04/15 03:51:22;;;;;;;1.27;1.10;;;16.60;28.20;;;;;;8392262;28;20036;-57
2021/04/15 03:55:28;;;;;;;1.00;0.90;;;16.60;28.20;;;;;;8393710;28;20045;-57
2021/04/15 03:59:50;;;;;;;2.08;1.13;;;16.60;28.20;;;;;;8393558;28;20044;-57
2021/04/15 04:04:24;;;;;;;1.90;1.20;;;16.60;28.20;;;;;;8396730;28;20485;-56
2021/04/15 04:08:36;;;;;;;2.28;1.05;;;16.50;28.20;;;;;;8364929;28;20128;-56
2021/04/15 04:12:45;;;;;;;1.25;1.10;;;16.60;28.20;;;;;;8386543;28;20127;-57
2021/04/15 04:17:03;;;;;;;2.72;1.20;;;16.60;28.30;;;;;;8375020;28;20049;-57
2021/04/15 04:21:29;;;;;;;1.30;1.20;;;16.50;28.20;;;;;;8370229;28;20041;-57
2021/04/15 04:25:36;;;;;;;2.50;1.10;;;16.50;28.20;;;;;;8392851;28;20123;-56
2021/04/15 04:29:46;;;;;;;1.75;1.30;;;16.50;28.30;;;;;;8397159;28;20033;-56
2021/04/15 04:33:50;;;;;;;3.97;1.10;;;16.50;28.20;;;;;;8360346;28;20044;-57
2021/04/15 04:37:52;;;;;;;1.60;1.20;;;16.50;28.30;;;;;;8381106;28;20045;-57
2021/04/15 04:42:26;;;;;;;1.42;1.10;;;16.50;28.20;;;;;;8390634;28;20032;-57
2021/04/15 04:46:45;;;;;;;1.45;1.20;;;16.50;28.20;;;;;;8392360;28;20507;-56
2021/04/15 04:51:02;;;;;;;2.78;1.27;;;16.50;28.20;;;;;;8394869;28;20044;-55
2021/04/15 04:55:23;;;;;;;3.08;1.23;;;16.50;28.30;;;;;;8396320;28;20436;-57
2021/04/15 04:59:35;;;;;;;1.70;1.27;;;16.50;28.20;;;;;;8391372;28;20044;-58
2021/04/15 05:03:35;;;;;;;2.08;1.27;;;16.50;28.30;;;;;;8390216;28;20072;-57
2021/04/15 05:07:37;;;;;;;1.30;1.10;;;16.50;28.30;;;;;;8391722;28;20397;-57
2021/04/15 05:11:41;;;;;;;2.15;1.23;;;16.50;28.30;;;;;;8394822;28;20092;-57
2021/04/15 05:15:42;;;;;;;1.23;0.90;;;16.50;28.30;;;;;;8392671;28;20110;-57
2021/04/15 05:19:43;;;;;;;1.35;1.17;;;16.50;28.30;;;;;;8366783;28;20045;-57
2021/04/15 05:23:50;;;;;;;1.47;1.00;;;16.50;28.30;;;;;;8371637;28;20033;-57
2021/04/15 05:27:52;;;;;;;1.55;1.33;;;16.50;28.30;;;;;;8389629;28;20058;-57
2021/04/15 05:31:54;;;;;;;2.33;2.00;;;16.50;28.20;;;;;;8395679;28;20040;-57
2021/04/15 05:36:18;;;;;;;2.22;1.10;;;16.50;28.20;;;;;;8360465;28;20029;-57
2021/04/15 05:40:19;;;;;;;1.92;1.42;;;16.50;28.30;;;;;;8379884;28;20055;-57
2021/04/15 05:44:35;;;;;;;1.47;1.37;;;16.50;28.30;;;;;;8390510;28;20115;-57
2021/04/15 05:48:38;;;;;;;1.15;1.05;;;16.50;28.30;;;;;;8388329;28;20079;-57
2021/04/15 05:52:52;;;;;;;1.73;1.20;;;16.50;28.20;;;;;;8395164;28;20429;-57
2021/04/15 05:57:00;;;;;;;2.10;1.40;;;16.50;28.30;;;;;;8388922;28;20040;-57
2021/04/15 06:01:12;;;;;;;2.38;1.58;;;16.40;28.20;;;;;;8390694;28;20508;-57
2021/04/15 06:05:29;;;;;;;1.50;1.30;;;16.40;28.20;;;;;;8390636;28;20093;-57
2021/04/15 06:09:30;;;;;;;2.10;1.60;;;16.50;28.30;;;;;;8388955;28;20041;-57
2021/04/15 06:13:54;;;;;;;1.95;1.30;;;16.50;28.20;;;;;;8394921;28;20037;-57
2021/04/15 06:18:03;;;;;;;1.67;1.15;;;16.50;28.20;;;;;;8387962;28;20168;-57
2021/04/15 06:22:17;;;;;;;2.97;1.40;;;16.50;28.20;;;;;;8390442;28;20075;-55
2021/04/15 06:26:26;;;;;;;2.35;1.38;;;16.50;28.20;;;;;;8389176;28;20489;-57
2021/04/15 06:30:36;;;;;;;2.38;1.55;;;16.50;28.20;;;;;;8382614;28;20064;-57
2021/04/15 06:34:36;;;;;;;2.03;1.52;;;16.50;28.10;;;;;;8361444;28;20033;-57
2021/04/15 06:39:03;;;;;;;2.77;1.60;;;16.60;28.10;;;;;;8359410;28;20049;-57
2021/04/15 06:43:21;;;;;;;1.63;1.15;;;16.70;28.00;;;;;;8379592;28;20115;-57
2021/04/15 06:47:59;;;;;;;1.25;1.10;;;16.80;27.90;;;;;;8390074;28;20051;-56
2021/04/15 06:52:18;;;;;;;1.25;1.05;;;16.90;27.70;;;;;;8388251;28;20051;-56
2021/04/15 06:56:50;;;;;;;2.40;1.50;;;17.00;27.60;;;;;;8394998;28;20099;-56
2021/04/15 07:00:57;;;;;;;1.85;1.55;;;17.00;27.50;;;;;;8397228;28;20131;-56
2021/04/15 07:05:03;;;;;;;1.38;1.23;;;17.10;27.50;;;;;;8366772;28;20037;-56
2021/04/15 07:09:35;;;;;;;1.67;1.38;;;17.10;27.50;;;;;;8384771;28;20028;-56
2021/04/15 07:13:53;;;;;;;2.83;1.17;;;17.10;27.40;;;;;;8395386;28;20040;-57
2021/04/15 07:18:42;;;;;;;2.17;1.73;;;17.10;27.50;;;;;;8382508;28;20497;-56
2021/04/15 07:22:54;;;;;;;1.63;1.33;;;17.00;27.50;;;;;;8318779;28;20041;-56
2021/04/15 07:27:18;;;;;;;2.70;1.27;;;17.00;27.60;;;;;;8386527;28;20040;-57
2021/04/15 07:31:32;;;;;;;1.73;1.20;;;17.00;27.60;;;;;;8365764;28;20037;-56
2021/04/15 07:35:57;;;;;;;2.92;1.42;;;17.00;27.60;;;;;;8390026;28;20112;-56
2021/04/15 07:40:17;;;;;;;1.63;1.33;;;17.00;27.70;;;;;;8392871;28;20082;-57
2021/04/15 07:44:24;;;;;;;2.33;1.50;;;17.00;27.70;;;;;;8394523;28;20036;-56
2021/04/15 07:49:07;;;;;;;1.80;1.20;;;17.00;27.70;;;;;;8387035;28;20041;-56
2021/04/15 07:53:53;;;;;;;2.15;1.30;;;17.00;27.80;;;;;;8311953;28;20052;-57
2021/04/15 07:58:22;;;;;;;1.33;1.23;;;16.90;27.80;;;;;;8362635;28;20412;-57
2021/04/15 08:02:25;;;;;;;2.20;1.40;;;16.90;27.80;;;;;;8365263;28;20075;-57
2021/04/15 08:06:37;;;;;;;1.67;1.20;;;16.90;27.80;;;;;;8384340;28;20037;-56
2021/04/15 08:10:57;;;;;;;2.22;1.30;;;16.90;27.80;;;;;;8394001;28;20040;-57
2021/04/15 08:15:09;;;;;;;1.38;1.20;;;16.90;27.80;;;;;;8380118;28;20043;-57
2021/04/15 08:19:23;;;;;;;;;;;16.90;27.90;;;;;;8363053;28;20041;-58
2021/04/15 08:24:06;;;;;;;1.92;1.08;;;16.90;27.80;;;;;;8397434;28;19912;-57
2021/04/15 08:28:30;;;;;;;1.48;1.27;;;16.90;27.80;;;;;;8356415;28;20044;-57
2021/04/15 08:32:53;;;;;;;3.30;1.42;;;16.90;27.80;;;;;;8384525;28;20060;-57
2021/04/15 08:37:27;;;;;;;1.55;1.10;;;16.90;27.80;;;;;;8391226;28;20062;-57
2021/04/15 08:41:45;;;;;;;1.40;1.00;;;17.00;27.80;;;;;;8392243;28;20049;-57
2021/04/15 08:45:55;;;;;;;1.23;0.95;;;17.00;27.80;;;;;;8384184;28;20056;-56
2021/04/15 08:50:13;;;;;;;1.48;1.30;;;17.00;27.80;;;;;;8363440;28;20112;-57
2021/04/15 08:54:47;;;;;;;1.48;1.23;;;17.00;27.80;;;;;;8361666;27;20033;-57
2021/04/15 08:59:10;;;;;;;1.98;1.10;;;17.10;27.80;;;;;;8387973;28;20044;-57
2021/04/15 09:03:49;;;;;;;1.42;1.13;;;17.10;27.80;;;;;;8389881;28;20028;-56
2021/04/15 09:08:23;;;;;;;1.45;1.25;;;17.10;27.70;;;;;;8391363;28;20032;-57
2021/04/15 09:12:40;;;;;;;1.45;1.05;;;17.10;27.70;;;;;;8358406;28;20072;-57
2021/04/15 09:16:44;;;;;;;1.52;1.17;;;17.10;27.70;;;;;;8389761;28;20103;-57
2021/04/15 09:21:11;;;;;;;1.58;1.10;;;17.10;27.70;;;;;;8394002;28;20043;-51
2021/04/15 09:25:32;;;;;;;1.10;1.00;;;17.10;27.70;;;;;;8390904;28;20041;-58
2021/04/15 09:30:11;;;;;;;1.75;1.00;;;17.20;27.60;;;;;;8391298;28;20523;-56
2021/04/15 09:34:47;;;;;;;1.92;1.20;;;17.20;27.60;;;;;;8389444;28;20106;-58
2021/04/15 09:39:20;;;;;;;2.78;1.00;;;17.30;27.70;;;;;;8389156;28;20056;-58
2021/04/15 09:43:23;;;;;;;1.25;1.10;;;17.30;27.60;;;;;;8380052;28;20037;-55
2021/04/15 09:47:40;;;;;;;1.90;1.20;;;17.20;27.60;;;;;;8358791;28;20044;-57
2021/04/15 09:51:56;;;;;;;1.00;0.90;;;17.20;27.60;;;;;;8393645;28;20382;-58
2021/04/15 09:56:33;;;;;;;1.55;0.93;;;17.20;27.50;;;;;;8390904;28;20493;-57
2021/04/15 10:00:38;;;;;;;1.25;1.00;;;17.20;27.50;;;;;;8388754;28;20057;-57
2021/04/15 10:04:49;;;;;;;0.80;0.80;;;17.20;27.60;;;;;;8390818;28;20067;-56
2021/04/15 10:08:57;;;;;;;0.77;0.77;;;17.20;27.60;;;;;;8388103;28;20389;-57
2021/04/15 10:13:19;;;;;;;1.73;1.15;;;17.30;27.60;;;;;;8395134;28;20036;-56
2021/04/15 10:17:35;;;;;;;0.77;0.75;;;17.20;27.60;;;;;;8393543;28;20048;-56
2021/04/15 10:21:58;;;;;;;0.95;0.70;;;17.20;27.60;;;;;;8388114;28;20056;-56
2021/04/15 10:26:07;;;;;;;1.65;0.90;;;17.20;27.60;;;;;;8389203;28;20037;-56
2021/04/15 10:30:08;;;;;;;1.20;1.00;;;17.20;27.60;;;;;;8393667;28;20076;-58
2021/04/15 10:34:09;;;;;;;1.63;1.07;;;17.20;27.60;;;;;;8397020;28;20035;-57
2021/04/15 10:38:49;;;;;;;1.10;0.80;;;17.20;27.70;;;;;;8399307;28;20040;-58
2021/04/15 10:43:05;;;;;;;1.35;1.05;;;17.20;27.70;;;;;;8394657;28;20028;-57
2021/04/15 10:47:26;;;;;;;1.17;0.82;;;17.20;27.80;;;;;;8396116;28;20041;-56
2021/04/15 10:51:53;;;;;;;2.08;1.00;;;17.20;27.80;;;;;;8394025;28;20548;-57
2021/04/15 10:56:11;;;;;;;1.10;0.85;;;17.20;27.70;;;;;;8388269;28;20075;-57
2021/04/15 11:00:18;;;;;;;0.70;0.60;;;17.20;27.80;;;;;;8361876;28;20053;-58
2021/04/15 11:04:23;;;;;;;1.00;0.90;;;17.20;27.80;;;;;;8398410;28;20040;-57
2021/04/15 11:08:24;;;;;;;1.00;0.90;;;17.30;27.90;;;;;;8395184;28;20040;-57
2021/04/15 11:12:29;;;;;;;2.30;1.10;;;17.30;27.80;;;;;;8394146;28;20093;-57
2021/04/15 11:16:31;;;;;;;1.40;0.98;;;17.20;28.20;;;;;;8395515;28;20047;-58
2021/04/15 11:20:35;;;;;;;0.85;0.80;;;17.30;27.70;;;;;;8399339;28;20044;-58
2021/04/15 11:24:36;;;;;;;1.27;0.90;;;17.30;27.70;;;;;;8363219;28;20029;-56
2021/04/15 11:28:37;;;;;;;0.80;0.80;;;17.30;27.70;;;;;;8381597;28;20036;-57
2021/04/15 11:32:43;;;;;;;1.20;0.90;;;17.30;27.70;;;;;;8394627;28;20106;-57
2021/04/15 11:37:05;;;;;;;1.02;0.70;;;17.30;27.60;;;;;;8392441;28;20082;-57
2021/04/15 11:41:42;;;;;;;1.10;0.93;;;17.30;27.70;;;;;;8397821;28;20041;-57
2021/04/15 11:45:42;;;;;;;1.33;1.17;;;17.30;27.60;;;;;;8329111;28;20123;-56
2021/04/15 11:49:45;;;;;;;1.70;1.10;;;17.30;27.60;;;;;;8362263;28;20047;-56
2021/04/15 11:53:56;;;;;;;1.23;0.90;;;17.30;27.60;;;;;;8372808;28;20424;-54
2021/04/15 11:58:04;;;;;;;1.10;0.93;;;17.30;27.70;;;;;;8393666;28;20032;-57
2021/04/15 12:02:25;;;;;;;1.17;0.88;;;17.40;27.70;;;;;;8398154;28;20033;-57
2021/04/15 12:06:41;;;;;;;1.13;0.90;;;17.40;27.70;;;;;;8391063;28;20078;-56
2021/04/15 12:10:46;;;;;;;1.27;1.00;;;17.40;27.60;;;;;;8393297;28;20039;-56
2021/04/15 12:14:47;;;;;;;1.10;1.00;;;17.40;27.60;;;;;;8391466;28;20029;-56
2021/04/15 12:18:57;;;;;;;0.90;0.73;;;17.50;27.60;;;;;;8379861;28;20041;-56
2021/04/15 12:23:18;;;;;;;1.05;0.70;;;17.50;27.60;;;;;;8331415;28;20045;-56
2021/04/15 12:27:32;;;;;;;;;;;17.50;27.60;;;;;;8390110;28;20123;-56
2021/04/15 12:31:56;;;;;;;0.85;0.80;;;17.50;27.60;;;;;;8368061;28;19917;-57
2021/04/15 12:36:04;;;;;;;1.73;0.77;;;17.50;27.60;;;;;;8375747;28;20389;-57
2021/04/15 12:40:31;;;;;;;1.70;0.90;;;17.50;27.60;;;;;;8383870;28;20041;-58
2021/04/15 12:44:33;;;;;;;2.25;1.00;;;17.60;27.70;;;;;;8363021;28;20131;-57
2021/04/15 12:48:41;;;;;;;;;;;17.60;27.50;;;;;;8395319;28;20051;-56
2021/04/15 12:52:42;;;;;;;1.88;1.02;;;17.60;27.50;;;;;;8392208;28;19912;-56
2021/04/15 12:56:48;;;;;;;1.43;0.90;;;17.60;27.50;;;;;;8392028;28;20095;-57
2021/04/15 13:00:55;;;;;;;1.33;1.02;;;17.60;27.50;;;;;;8390177;28;20044;-56
2021/04/15 13:05:00;;;;;;;2.45;1.30;;;17.60;27.50;;;;;;8393592;28;20028;-57
2021/04/15 13:09:01;;;;;;;1.17;0.82;;;17.60;27.50;;;;;;8378377;28;20063;-57
2021/04/15 13:13:01;;;;;;;1.17;0.90;;;17.60;27.50;;;;;;8391319;28;20055;-59
2021/04/15 13:17:04;;;;;;;1.10;0.80;;;17.60;27.50;;;;;;8389770;28;20064;-56
2021/04/15 13:21:29;;;;;;;0.70;0.70;;;17.60;27.60;;;;;;8361934;28;20040;-57
2021/04/15 13:25:32;;;;;;;0.90;0.80;;;17.60;27.60;;;;;;8394340;28;20063;-55
2021/04/15 13:29:53;;;;;;;0.90;0.80;;;17.60;27.50;;;;;;8373120;28;20477;-56
2021/04/15 13:33:58;;;;;;;2.28;1.30;;;17.60;27.50;;;;;;8357187;28;20033;-57
2021/04/15 13:37:59;;;;;;;2.85;1.08;;;17.60;26.50;;;;;;8373183;28;20127;-56
2021/04/15 13:42:04;;;;;;;3.53;1.20;;;17.50;27.00;;;;;;8380678;28;20043;-53
2021/04/15 13:46:24;;;;;;;2.88;1.15;;;17.50;27.10;;;;;;8395050;28;20108;-55
2021/04/15 13:51:01;;;;;;;1.58;0.90;;;17.50;27.00;;;;;;8359464;27;20029;-56
2021/04/15 13:55:44;;;;;;;1.45;0.90;;;17.60;27.00;;;;;;8383940;28;20071;-56
2021/04/15 13:59:55;;;;;;;1.20;1.08;;;17.60;27.00;;;;;;8370012;28;20102;-54
2021/04/15 14:03:55;;;;;;;1.25;0.80;;;17.60;27.00;;;;;;8374625;28;20162;-56
2021/04/15 14:08:15;;;;;;;2.33;0.87;;;17.60;27.00;;;;;;8379225;28;20021;-55
2021/04/15 14:12:40;;;;;;;3.80;1.00;;;17.60;27.00;;;;;;8396085;28;20036;-55
2021/04/15 14:16:41;;;;;;;0.90;0.70;;;17.60;27.00;;;;;;8369392;28;20036;-57
2021/04/15 14:20:55;;;;;;;1.53;1.07;;;17.60;27.00;;;;;;8383988;28;20547;-55
2021/04/15 14:25:29;;;;;;;1.30;0.82;;;17.70;27.10;;;;;;8345919;28;20041;-55
2021/04/15 14:29:38;;;;;;;5.10;1.08;;;17.70;27.10;;;;;;8362647;28;20037;-55
2021/04/15 14:33:39;;;;;;;2.03;0.90;;;17.70;27.10;;;;;;8344828;28;20040;-55
2021/04/15 14:37:40;;;;;;;0.70;0.70;;;17.70;27.20;;;;;;8383301;28;20029;-55
2021/04/15 14:41:42;;;;;;;1.07;0.83;;;17.70;27.20;;;;;;8395849;28;20063;-56
2021/04/15 14:45:43;;;;;;;1.00;0.90;;;17.70;27.20;;;;;;8394536;28;20350;-55
2021/04/15 14:49:59;;;;;;;2.08;0.90;;;17.70;27.20;;;;;;8384928;28;20040;-55
2021/04/15 14:54:16;;;;;;;1.80;1.20;;;17.70;27.10;;;;;;8365535;28;20604;-56
2021/04/15 14:58:26;;;;;;;0.80;0.80;;;17.70;27.10;;;;;;8367040;28;20041;-55
2021/04/15 15:02:31;;;;;;;2.30;1.10;;;17.70;27.10;;;;;;8388267;28;20041;-57
2021/04/15 15:06:39;;;;;;;0.90;0.80;;;17.70;27.10;;;;;;8383351;28;20493;-57
2021/04/15 15:10:41;;;;;;;1.25;0.70;;;17.70;27.00;;;;;;8370106;28;20047;-57
2021/04/15 15:14:45;;;;;;;1.02;0.80;;;17.70;27.10;;;;;;8398299;28;20051;-57
2021/04/15 15:18:47;;;;;;;1.15;0.77;;;17.70;27.10;;;;;;8362450;28;20033;-56
2021/04/15 15:23:03;;;;;;;1.35;0.90;;;17.70;27.10;;;;;;8384057;28;20110;-57
2021/04/15 15:27:22;;;;;;;0.93;0.73;;;17.70;27.10;;;;;;8392851;28;20102;-57
2021/04/15 15:31:28;;;;;;;1.90;1.00;;;17.70;27.10;;;;;;8391861;28;20036;-56
2021/04/15 15:35:34;;;;;;;2.00;0.85;;;17.70;27.10;;;;;;8376666;28;20037;-55
2021/04/15 15:39:43;;;;;;;1.52;0.93;;;17.70;27.10;;;;;;8390238;28;20048;-61
2021/04/15 15:43:55;;;;;;;1.88;0.90;;;17.70;27.10;;;;;;8353018;28;20497;-55
2021/04/15 15:47:56;;;;;;;0.80;0.80;;;17.70;27.20;;;;;;8372083;27;20032;-55
2021/04/15 15:52:03;;;;;;;2.60;1.07;;;17.70;27.20;;;;;;8393273;28;20051;-51
2021/04/15 15:56:23;;;;;;;1.40;0.90;;;17.70;27.20;;;;;;8397208;28;20032;-55
2021/04/15 16:00:26;;;;;;;1.30;0.88;;;17.70;27.30;;;;;;8387113;28;20044;-56
2021/04/15 16:04:29;;;;;;;1.75;0.73;;;17.70;27.30;;;;;;8393177;28;20090;-56
2021/04/15 16:08:30;;;;;;;1.33;0.90;;;17.60;27.30;;;;;;8381456;28;20037;-56
2021/04/15 16:12:44;;;;;;;1.00;0.90;;;17.60;27.20;;;;;;8352609;28;20041;-56
2021/04/15 16:16:49;;;;;;;1.10;0.80;;;17.60;27.30;;;;;;8336851;28;20033;-55
2021/04/15 16:21:03;;;;;;;0.88;0.77;;;17.60;27.20;;;;;;8326136;28;20434;-56
2021/04/15 16:25:05;;;;;;;1.13;0.88;;;17.60;27.60;;;;;;8358301;28;20508;-56
2021/04/15 16:29:05;;;;;;;2.13;1.00;;;17.60;27.20;;;;;;8381819;28;20032;-56
2021/04/15 16:33:06;;;;;;;0.60;0.60;;;17.60;27.20;;;;;;8369315;28;20067;-56
2021/04/15 16:37:15;;;;;;;0.95;0.85;;;17.60;27.20;;;;;;8396930;28;20389;-54
2021/04/15 16:41:18;;;;;;;0.85;0.77;;;17.60;27.30;;;;;;8392520;28;20559;-57
2021/04/15 16:45:19;;;;;;;2.08;0.90;;;17.50;27.20;;;;;;8390593;28;20125;-58
2021/04/15 16:49:21;;;;;;;0.80;0.80;;;17.60;27.30;;;;;;8380872;28;20028;-54
2021/04/15 16:53:21;;;;;;;1.27;0.85;;;17.60;27.40;;;;;;8396717;28;20029;-54
2021/04/15 16:57:22;;;;;;;0.73;0.73;;;17.60;27.30;;;;;;8337425;28;20116;-55
2021/04/15 17:01:23;;;;;;;0.77;0.77;;;17.60;27.30;;;;;;8345827;28;20038;-55
2021/04/15 17:05:25;;;;;;;1.75;1.20;;;17.50;27.30;;;;;;8344145;28;20040;-57
2021/04/15 17:09:26;;;;;;;0.95;0.90;;;17.40;27.10;;;;;;8325533;28;20534;-58
2021/04/15 17:13:27;;;;;;;2.53;1.10;;;17.30;27.20;;;;;;8375949;28;20040;-59
2021/04/15 17:17:27;;;;;;;0.87;0.80;;;17.40;27.20;;;;;;8369930;28;20103;-58
2021/04/15 17:21:28;;;;;;;1.37;1.00;;;17.30;27.40;;;;;;8385667;28;20040;-57
2021/04/15 17:25:29;;;;;;;1.13;0.80;;;17.40;27.40;;;;;;8358761;28;20037;-58
2021/04/15 17:29:29;;;;;;;1.37;0.90;;;17.40;27.30;;;;;;8362331;28;20033;-58
2021/04/15 17:33:30;;;;;;;1.67;0.80;;;17.40;27.40;;;;;;8356505;28;20441;-58
2021/04/15 17:37:31;;;;;;;1.17;1.00;;;17.30;27.30;;;;;;8374948;28;20078;-58
2021/04/15 17:41:31;;;;;;;2.17;0.90;;;17.40;27.30;;;;;;8372602;28;20531;-58
2021/04/15 17:45:32;;;;;;;0.87;0.87;;;17.40;27.40;;;;;;8393370;28;20032;-58
2021/04/15 17:49:33;;;;;;;1.13;1.00;;;17.40;27.40;;;;;;8359650;28;20696;-58
2021/04/15 17:53:34;;;;;;;1.17;0.70;;;17.40;27.40;;;;;;8358008;28;20045;-58
2021/04/15 17:57:35;;;;;;;1.83;1.00;;;17.40;27.30;;;;;;8368111;28;20123;-59
2021/04/15 18:01:35;;;;;;;1.30;0.70;;;17.40;27.40;;;;;;8390514;28;20040;-58
2021/04/15 18:05:37;;;;;;;2.00;0.83;;;17.30;27.40;;;;;;8394731;28;20043;-58
2021/04/15 18:09:37;;;;;;;0.68;0.60;;;17.40;27.40;;;;;;8388630;28;20036;-58
2021/04/15 18:13:39;;;;;;;1.10;1.00;;;17.30;27.30;;;;;;8376777;28;20538;-57
2021/04/15 18:17:40;;;;;;;1.30;0.70;;;17.30;27.40;;;;;;8358183;28;20471;-58
2021/04/15 18:21:40;;;;;;;1.20;0.90;;;17.30;27.30;;;;;;8360022;28;20103;-58
2021/04/15 18:25:41;;;;;;;1.03;0.80;;;17.30;27.40;;;;;;8386272;28;20036;-58
2021/04/15 18:29:41;;;;;;;0.97;0.80;;;17.30;27.40;;;;;;8390118;28;20040;-59
2021/04/15 18:33:45;;;;;;;1.20;0.80;;;17.30;27.40;;;;;;8388524;28;20403;-58
2021/04/15 18:37:46;;;;;;;1.48;0.90;;;17.30;27.40;;;;;;8394573;28;20032;-58
2021/04/15 18:41:46;;;;;;;1.20;0.90;;;17.30;27.40;;;;;;8389759;28;20412;-56
2021/04/15 18:45:48;;;;;;;1.17;0.90;;;17.30;27.30;;;;;;8368047;28;20063;-58
2021/04/15 18:49:49;;;;;;;3.00;0.90;;;17.30;27.40;;;;;;8373748;28;20124;-59
2021/04/15 18:53:51;;;;;;;1.70;0.80;;;17.30;27.40;;;;;;8394248;27;20033;-59
2021/04/15 18:57:51;;;;;;;;;;;17.30;27.40;;;;;;8400959;28;20493;-59
2021/04/15 19:01:52;;;;;;;0.88;0.82;;;17.30;27.40;;;;;;8395866;28;20038;-59
2021/04/15 19:05:54;;;;;;;1.10;0.80;;;17.30;27.50;;;;;;8393939;28;20037;-59
2021/04/15 19:09:55;;;;;;;1.30;0.93;;;17.20;27.40;;;;;;8388098;28;20040;-58
2021/04/15 19:13:55;;;;;;;1.50;1.10;;;17.20;27.50;;;;;;8366766;28;20447;-59
2021/04/15 19:17:56;;;;;;;1.33;0.90;;;17.30;27.50;;;;;;8392062;27;20033;-58
2021/04/15 19:21:56;;;;;;;1.03;0.80;;;17.30;27.50;;;;;;8395096;28;20041;-58
2021/04/15 19:25:57;;;;;;;1.07;0.80;;;17.20;27.40;;;;;;8394814;28;20086;-58
2021/04/15 19:29:57;;;;;;;0.97;0.80;;;17.30;27.40;;;;;;8392899;28;20115;-58
2021/04/15 19:34:00;;;;;;;1.10;1.00;;;17.30;27.40;;;;;;8399279;28;20032;-58
2021/04/15 19:38:01;;;;;;;1.73;1.02;;;17.30;27.40;;;;;;8352287;27;20398;-58
2021/04/15 19:42:02;;;;;;;1.97;1.10;;;17.20;27.40;;;;;;8344216;28;20084;-58
2021/04/15 19:46:03;;;;;;;1.08;0.90;;;17.20;27.30;;;;;;8394514;28;20127;-58
2021/04/15 19:50:07;;;;;;;1.67;1.00;;;17.30;27.40;;;;;;8398738;28;20036;-59
2021/04/15 19:54:08;;;;;;;1.25;0.90;;;17.20;27.40;;;;;;8392356;28;20048;-58
2021/04/15 19:58:10;;;;;;;3.17;1.40;;;17.20;27.30;;;;;;8393828;28;20044;-58
2021/04/15 20:02:10;;;;;;;1.13;1.00;;;17.20;27.40;;;;;;8384074;28;20025;-58
2021/04/15 20:06:12;;;;;;;0.97;0.87;;;17.20;27.30;;;;;;8339113;28;20033;-58
2021/04/15 20:10:20;;;;;;;1.10;1.00;;;17.20;27.30;;;;;;8395860;28;20474;-58
2021/04/15 20:14:21;;;;;;;1.25;0.98;;;17.20;27.30;;;;;;8392849;28;20064;-58
2021/04/15 20:18:22;;;;;;;1.13;0.93;;;17.20;27.40;;;;;;8392217;28;20435;-59
2021/04/15 20:22:24;;;;;;;;;;;17.20;27.30;;;;;;8380425;28;20036;-59
2021/04/15 20:26:25;;;;;;;1.48;0.85;;;17.20;27.30;;;;;;8385054;28;19938;-59
2021/04/15 20:30:31;;;;;;;2.07;1.10;;;17.20;27.30;;;;;;8363244;28;20082;-59
2021/04/15 20:34:33;;;;;;;1.52;1.00;;;17.20;27.30;;;;;;8378860;28;20040;-59
2021/04/15 20:38:37;;;;;;;1.10;0.90;;;17.20;27.20;;;;;;8369482;28;20088;-60
2021/04/15 20:42:38;;;;;;;1.90;1.15;;;17.20;27.20;;;;;;8391948;28;20378;-58
2021/04/15 20:46:38;;;;;;;2.57;0.90;;;17.20;27.20;;;;;;8395249;28;20036;-59
2021/04/15 20:50:41;;;;;;;1.37;1.10;;;17.20;27.20;;;;;;8392260;28;20029;-59
2021/04/15 20:54:42;;;;;;;2.53;1.05;;;17.10;27.20;;;;;;8390265;28;20033;-59
2021/04/15 20:58:42;;;;;;;1.47;1.13;;;17.10;27.60;;;;;;8388704;28;20060;-60
2021/04/15 21:02:43;;;;;;;3.03;1.10;;;17.20;27.10;;;;;;8363575;28;20041;-58
2021/04/15 21:06:43;;;;;;;2.00;1.47;;;17.10;27.10;;;;;;8384670;28;20190;-59
2021/04/15 21:10:46;;;;;;;2.03;1.00;;;17.10;27.20;;;;;;8392052;28;20123;-58
2021/04/15 21:14:47;;;;;;;2.08;1.20;;;17.10;27.10;;;;;;8389122;28;20021;-58
2021/04/15 21:18:48;;;;;;;1.30;0.90;;;17.10;27.10;;;;;;8395791;28;20404;-58
2021/04/15 21:22:49;;;;;;;1.30;1.10;;;17.10;27.10;;;;;;8391381;28;20436;-58
2021/04/15 21:26:50;;;;;;;1.50;1.00;;;17.10;27.20;;;;;;8389863;28;20025;-59
2021/04/15 21:30:53;;;;;;;3.50;1.27;;;17.10;27.20;;;;;;8391234;28;20038;-59
2021/04/15 21:34:54;;;;;;;1.45;1.10;;;17.00;27.20;;;;;;8391270;28;20260;-60
2021/04/15 21:38:54;;;;;;;1.63;1.10;;;17.00;27.10;;;;;;8393784;28;20068;-59
2021/04/15 21:42:59;;;;;;;1.03;0.80;;;17.00;27.20;;;;;;8391418;28;20370;-59